sensor_id;sensor_type;location;lat;lon;timestamp;P1;durP1;ratioP1;P2;durP2;ratioP2
43626;SDS011;29217;52.586;13.442;2023-07-20T00:01:51;9.48;;;4.82;;
43626;SDS011;29217;52.586;13.442;2023-07-20T00:04:17;7.15;;;4.82;;
43626;SDS011;29217;52.586;13.442;2023-07-20T00:06:43;7.03;;;5.05;;
43626;SDS011;29217;52.586;13.442;2023-07-20T00:09:08;6.97;;;4.63;;
43626;SDS011;29217;52.586;13.442;2023-07-20T00:11:37;7.15;;;4.60;;
43626;SDS011;29217;52.586;13.442;2023-07-20T00:14:04;6.50;;;4.85;;
43626;SDS011;29217;52.586;13.442;2023-07-20T00:16:30;10.40;;;5.75;;
43626;SDS011;29217;52.586;13.442;2023-07-20T00:18:56;7.30;;;5.03;;
43626;SDS011;29217;52.586;13.442;2023-07-20T00:21:21;7.82;;;5.50;;
43626;SDS011;29217;52.586;13.442;2023-07-20T00:23:47;7.85;;;5.65;;
43626;SDS011;29217;52.586;13.442;2023-07-20T00:26:13;10.25;;;5.60;;
43626;SDS011;29217;52.586;13.442;2023-07-20T00:28:38;11.70;;;5.65;;
43626;SDS011;29217;52.586;13.442;2023-07-20T00:31:04;10.18;;;5.82;;
43626;SDS011;29217;52.586;13.442;2023-07-20T00:33:30;10.07;;;6.28;;
43626;SDS011;29217;52.586;13.442;2023-07-20T00:35:55;9.98;;;6.13;;
43626;SDS011;29217;52.586;13.442;2023-07-20T00:38:21;8.52;;;6.55;;
43626;SDS011;29217;52.586;13.442;2023-07-20T00:40:47;11.68;;;6.07;;
43626;SDS011;29217;52.586;13.442;2023-07-20T00:43:14;9.07;;;5.88;;
43626;SDS011;29217;52.586;13.442;2023-07-20T00:45:40;9.20;;;6.00;;
43626;SDS011;29217;52.586;13.442;2023-07-20T00:48:06;8.88;;;6.15;;
43626;SDS011;29217;52.586;13.442;2023-07-20T00:50:32;13.43;;;6.28;;
43626;SDS011;29217;52.586;13.442;2023-07-20T00:52:59;12.90;;;6.63;;
43626;SDS011;29217;52.586;13.442;2023-07-20T00:55:25;8.10;;;5.85;;
43626;SDS011;29217;52.586;13.442;2023-07-20T00:57:53;7.25;;;5.93;;
43626;SDS011;29217;52.586;13.442;2023-07-20T01:00:19;10.48;;;5.60;;
43626;SDS011;29217;52.586;13.442;2023-07-20T01:02:45;9.15;;;5.45;;
43626;SDS011;29217;52.586;13.442;2023-07-20T01:05:12;6.70;;;4.70;;
43626;SDS011;29217;52.586;13.442;2023-07-20T01:07:55;7.22;;;5.22;;
43626;SDS011;29217;52.586;13.442;2023-07-20T01:10:37;7.38;;;5.28;;
43626;SDS011;29217;52.586;13.442;2023-07-20T01:13:06;7.45;;;5.68;;
43626;SDS011;29217;52.586;13.442;2023-07-20T01:15:34;8.25;;;5.75;;
43626;SDS011;29217;52.586;13.442;2023-07-20T01:18:00;6.13;;;5.43;;
43626;SDS011;29217;52.586;13.442;2023-07-20T01:20:26;11.27;;;6.20;;
43626;SDS011;29217;52.586;13.442;2023-07-20T01:30:50;8.02;;;6.40;;
43626;SDS011;29217;52.586;13.442;2023-07-20T01:33:17;10.40;;;6.90;;
43626;SDS011;29217;52.586;13.442;2023-07-20T01:35:46;8.73;;;6.88;;
43626;SDS011;29217;52.586;13.442;2023-07-20T01:38:15;9.32;;;6.78;;
43626;SDS011;29217;52.586;13.442;2023-07-20T01:40:41;12.90;;;7.25;;
43626;SDS011;29217;52.586;13.442;2023-07-20T01:43:07;13.80;;;6.78;;
43626;SDS011;29217;52.586;13.442;2023-07-20T01:45:33;13.13;;;8.80;;
43626;SDS011;29217;52.586;13.442;2023-07-20T01:48:00;14.75;;;9.60;;
43626;SDS011;29217;52.586;13.442;2023-07-20T01:50:25;15.55;;;10.02;;
43626;SDS011;29217;52.586;13.442;2023-07-20T01:52:51;25.80;;;11.00;;
43626;SDS011;29217;52.586;13.442;2023-07-20T01:55:16;17.67;;;9.52;;
43626;SDS011;29217;52.586;13.442;2023-07-20T01:57:42;14.20;;;8.75;;
43626;SDS011;29217;52.586;13.442;2023-07-20T02:00:08;13.25;;;8.88;;
43626;SDS011;29217;52.586;13.442;2023-07-20T02:02:34;14.23;;;7.82;;
43626;SDS011;29217;52.586;13.442;2023-07-20T02:05:00;15.55;;;8.60;;
43626;SDS011;29217;52.586;13.442;2023-07-20T02:07:25;13.18;;;9.20;;
43626;SDS011;29217;52.586;13.442;2023-07-20T02:09:51;11.18;;;7.82;;
43626;SDS011;29217;52.586;13.442;2023-07-20T02:12:17;12.10;;;8.88;;
43626;SDS011;29217;52.586;13.442;2023-07-20T02:14:42;12.77;;;9.32;;
43626;SDS011;29217;52.586;13.442;2023-07-20T02:17:08;11.98;;;9.40;;
43626;SDS011;29217;52.586;13.442;2023-07-20T02:19:36;14.07;;;8.82;;
43626;SDS011;29217;52.586;13.442;2023-07-20T02:22:02;14.30;;;9.32;;
43626;SDS011;29217;52.586;13.442;2023-07-20T02:24:28;11.80;;;9.80;;
43626;SDS011;29217;52.586;13.442;2023-07-20T02:26:53;15.73;;;10.15;;
43626;SDS011;29217;52.586;13.442;2023-07-20T02:29:19;15.40;;;10.32;;
43626;SDS011;29217;52.586;13.442;2023-07-20T02:31:44;16.20;;;11.07;;
43626;SDS011;29217;52.586;13.442;2023-07-20T02:34:10;19.33;;;10.82;;
43626;SDS011;29217;52.586;13.442;2023-07-20T02:36:36;17.17;;;10.95;;
43626;SDS011;29217;52.586;13.442;2023-07-20T02:39:01;16.95;;;10.95;;
43626;SDS011;29217;52.586;13.442;2023-07-20T02:41:29;17.55;;;11.38;;
43626;SDS011;29217;52.586;13.442;2023-07-20T02:43:55;17.75;;;11.52;;
43626;SDS011;29217;52.586;13.442;2023-07-20T02:46:21;17.48;;;11.15;;
43626;SDS011;29217;52.586;13.442;2023-07-20T02:48:47;17.85;;;11.23;;
43626;SDS011;29217;52.586;13.442;2023-07-20T02:51:13;18.55;;;11.30;;
43626;SDS011;29217;52.586;13.442;2023-07-20T02:53:38;17.20;;;11.18;;
43626;SDS011;29217;52.586;13.442;2023-07-20T02:56:04;18.05;;;11.48;;
43626;SDS011;29217;52.586;13.442;2023-07-20T02:58:30;16.30;;;10.02;;
43626;SDS011;29217;52.586;13.442;2023-07-20T03:00:55;15.65;;;11.00;;
43626;SDS011;29217;52.586;13.442;2023-07-20T03:03:21;17.10;;;10.98;;
43626;SDS011;29217;52.586;13.442;2023-07-20T03:05:47;17.25;;;11.38;;
43626;SDS011;29217;52.586;13.442;2023-07-20T03:08:19;20.10;;;11.85;;
43626;SDS011;29217;52.586;13.442;2023-07-20T03:10:44;20.85;;;12.77;;
43626;SDS011;29217;52.586;13.442;2023-07-20T03:13:10;23.60;;;12.82;;
43626;SDS011;29217;52.586;13.442;2023-07-20T03:15:35;25.25;;;12.98;;
43626;SDS011;29217;52.586;13.442;2023-07-20T03:18:01;24.25;;;13.05;;
43626;SDS011;29217;52.586;13.442;2023-07-20T03:20:27;24.90;;;13.65;;
43626;SDS011;29217;52.586;13.442;2023-07-20T03:22:53;22.27;;;13.05;;
43626;SDS011;29217;52.586;13.442;2023-07-20T03:25:19;20.27;;;13.40;;
43626;SDS011;29217;52.586;13.442;2023-07-20T03:27:44;22.05;;;13.00;;
43626;SDS011;29217;52.586;13.442;2023-07-20T03:30:10;20.13;;;13.15;;
43626;SDS011;29217;52.586;13.442;2023-07-20T03:32:36;24.77;;;13.93;;
43626;SDS011;29217;52.586;13.442;2023-07-20T03:35:01;23.25;;;13.25;;
43626;SDS011;29217;52.586;13.442;2023-07-20T03:37:27;21.85;;;12.90;;
43626;SDS011;29217;52.586;13.442;2023-07-20T03:39:53;21.20;;;12.80;;
43626;SDS011;29217;52.586;13.442;2023-07-20T03:42:18;20.67;;;12.80;;
43626;SDS011;29217;52.586;13.442;2023-07-20T03:44:44;20.13;;;12.85;;
43626;SDS011;29217;52.586;13.442;2023-07-20T03:47:09;26.88;;;14.80;;
43626;SDS011;29217;52.586;13.442;2023-07-20T03:49:35;22.83;;;13.15;;
43626;SDS011;29217;52.586;13.442;2023-07-20T03:52:01;28.10;;;13.65;;
43626;SDS011;29217;52.586;13.442;2023-07-20T03:54:29;24.60;;;13.93;;
43626;SDS011;29217;52.586;13.442;2023-07-20T03:56:55;27.80;;;15.35;;
43626;SDS011;29217;52.586;13.442;2023-07-20T03:59:20;25.42;;;13.32;;
43626;SDS011;29217;52.586;13.442;2023-07-20T04:01:46;22.27;;;13.13;;
43626;SDS011;29217;52.586;13.442;2023-07-20T04:04:13;20.50;;;12.60;;
43626;SDS011;29217;52.586;13.442;2023-07-20T04:06:41;22.35;;;12.77;;
43626;SDS011;29217;52.586;13.442;2023-07-20T04:09:09;19.95;;;12.88;;
43626;SDS011;29217;52.586;13.442;2023-07-20T04:11:34;19.90;;;12.35;;
43626;SDS011;29217;52.586;13.442;2023-07-20T04:14:00;18.83;;;12.63;;
43626;SDS011;29217;52.586;13.442;2023-07-20T04:16:26;19.92;;;12.40;;
43626;SDS011;29217;52.586;13.442;2023-07-20T04:18:52;21.08;;;12.48;;
43626;SDS011;29217;52.586;13.442;2023-07-20T04:21:19;18.42;;;11.95;;
43626;SDS011;29217;52.586;13.442;2023-07-20T04:23:45;20.08;;;11.93;;
43626;SDS011;29217;52.586;13.442;2023-07-20T04:26:11;14.93;;;10.73;;
43626;SDS011;29217;52.586;13.442;2023-07-20T04:28:37;16.17;;;11.57;;
43626;SDS011;29217;52.586;13.442;2023-07-20T04:31:14;16.95;;;10.18;;
43626;SDS011;29217;52.586;13.442;2023-07-20T04:33:40;17.35;;;11.43;;
43626;SDS011;29217;52.586;13.442;2023-07-20T04:36:07;19.75;;;11.20;;
43626;SDS011;29217;52.586;13.442;2023-07-20T04:38:33;18.38;;;12.00;;
43626;SDS011;29217;52.586;13.442;2023-07-20T04:40:59;20.98;;;12.57;;
43626;SDS011;29217;52.586;13.442;2023-07-20T04:43:24;20.63;;;13.10;;
43626;SDS011;29217;52.586;13.442;2023-07-20T04:45:50;19.30;;;12.70;;
43626;SDS011;29217;52.586;13.442;2023-07-20T04:48:16;18.88;;;12.60;;
43626;SDS011;29217;52.586;13.442;2023-07-20T04:50:43;18.27;;;12.10;;
43626;SDS011;29217;52.586;13.442;2023-07-20T04:53:10;17.38;;;11.50;;
43626;SDS011;29217;52.586;13.442;2023-07-20T04:55:37;17.25;;;11.82;;
43626;SDS011;29217;52.586;13.442;2023-07-20T04:58:06;18.55;;;12.63;;
43626;SDS011;29217;52.586;13.442;2023-07-20T05:00:32;17.83;;;11.00;;
43626;SDS011;29217;52.586;13.442;2023-07-20T05:02:59;17.25;;;10.82;;
43626;SDS011;29217;52.586;13.442;2023-07-20T05:05:24;20.30;;;10.63;;
43626;SDS011;29217;52.586;13.442;2023-07-20T05:07:50;18.80;;;10.73;;
43626;SDS011;29217;52.586;13.442;2023-07-20T05:10:17;18.27;;;10.95;;
43626;SDS011;29217;52.586;13.442;2023-07-20T05:12:43;14.95;;;9.93;;
43626;SDS011;29217;52.586;13.442;2023-07-20T05:15:08;11.38;;;8.43;;
43626;SDS011;29217;52.586;13.442;2023-07-20T05:17:34;13.27;;;8.75;;
43626;SDS011;29217;52.586;13.442;2023-07-20T05:20:00;11.23;;;7.97;;
43626;SDS011;29217;52.586;13.442;2023-07-20T05:22:26;17.75;;;9.52;;
43626;SDS011;29217;52.586;13.442;2023-07-20T05:24:51;16.35;;;9.00;;
43626;SDS011;29217;52.586;13.442;2023-07-20T05:27:17;11.43;;;7.90;;
43626;SDS011;29217;52.586;13.442;2023-07-20T05:29:45;13.35;;;9.18;;
43626;SDS011;29217;52.586;13.442;2023-07-20T05:32:12;14.57;;;8.45;;
43626;SDS011;29217;52.586;13.442;2023-07-20T05:34:38;13.45;;;8.40;;
43626;SDS011;29217;52.586;13.442;2023-07-20T05:37:03;13.50;;;7.93;;
43626;SDS011;29217;52.586;13.442;2023-07-20T05:39:29;15.98;;;8.43;;
43626;SDS011;29217;52.586;13.442;2023-07-20T05:41:57;11.73;;;7.65;;
43626;SDS011;29217;52.586;13.442;2023-07-20T05:44:22;13.82;;;8.02;;
43626;SDS011;29217;52.586;13.442;2023-07-20T05:46:48;14.85;;;8.77;;
43626;SDS011;29217;52.586;13.442;2023-07-20T05:49:13;12.43;;;8.27;;
43626;SDS011;29217;52.586;13.442;2023-07-20T05:51:39;14.32;;;8.00;;
43626;SDS011;29217;52.586;13.442;2023-07-20T05:54:05;11.35;;;7.35;;
43626;SDS011;29217;52.586;13.442;2023-07-20T05:56:31;10.52;;;7.25;;
43626;SDS011;29217;52.586;13.442;2023-07-20T05:58:57;11.63;;;7.43;;
43626;SDS011;29217;52.586;13.442;2023-07-20T06:01:22;12.02;;;6.82;;
43626;SDS011;29217;52.586;13.442;2023-07-20T06:03:51;9.38;;;6.82;;
43626;SDS011;29217;52.586;13.442;2023-07-20T06:06:17;9.82;;;6.93;;
43626;SDS011;29217;52.586;13.442;2023-07-20T06:08:42;12.57;;;6.93;;
43626;SDS011;29217;52.586;13.442;2023-07-20T06:11:08;8.90;;;6.25;;
43626;SDS011;29217;52.586;13.442;2023-07-20T06:13:34;8.90;;;5.82;;
43626;SDS011;29217;52.586;13.442;2023-07-20T06:16:00;6.35;;;4.68;;
43626;SDS011;29217;52.586;13.442;2023-07-20T06:18:25;6.00;;;4.72;;
43626;SDS011;29217;52.586;13.442;2023-07-20T06:20:51;8.93;;;4.60;;
43626;SDS011;29217;52.586;13.442;2023-07-20T06:23:18;7.75;;;3.95;;
43626;SDS011;29217;52.586;13.442;2023-07-20T06:25:44;8.00;;;3.60;;
43626;SDS011;29217;52.586;13.442;2023-07-20T06:28:10;6.57;;;3.58;;
43626;SDS011;29217;52.586;13.442;2023-07-20T06:30:36;5.07;;;3.55;;
43626;SDS011;29217;52.586;13.442;2023-07-20T06:33:01;9.20;;;3.70;;
43626;SDS011;29217;52.586;13.442;2023-07-20T06:35:27;6.72;;;3.95;;
43626;SDS011;29217;52.586;13.442;2023-07-20T06:37:52;7.28;;;4.20;;
43626;SDS011;29217;52.586;13.442;2023-07-20T06:40:18;9.70;;;4.07;;
43626;SDS011;29217;52.586;13.442;2023-07-20T06:42:44;10.45;;;3.90;;
43626;SDS011;29217;52.586;13.442;2023-07-20T06:45:10;5.85;;;3.40;;
43626;SDS011;29217;52.586;13.442;2023-07-20T06:47:38;5.68;;;3.72;;
43626;SDS011;29217;52.586;13.442;2023-07-20T06:50:05;3.75;;;3.00;;
43626;SDS011;29217;52.586;13.442;2023-07-20T06:52:34;4.68;;;3.05;;
43626;SDS011;29217;52.586;13.442;2023-07-20T06:55:00;8.05;;;3.33;;
43626;SDS011;29217;52.586;13.442;2023-07-20T06:57:26;8.25;;;3.28;;
43626;SDS011;29217;52.586;13.442;2023-07-20T06:59:52;6.03;;;3.20;;
43626;SDS011;29217;52.586;13.442;2023-07-20T07:02:18;4.80;;;3.08;;
43626;SDS011;29217;52.586;13.442;2023-07-20T07:04:44;4.72;;;2.92;;
43626;SDS011;29217;52.586;13.442;2023-07-20T07:07:11;4.75;;;2.85;;
43626;SDS011;29217;52.586;13.442;2023-07-20T07:09:40;4.50;;;2.25;;
43626;SDS011;29217;52.586;13.442;2023-07-20T07:12:07;5.03;;;2.75;;
43626;SDS011;29217;52.586;13.442;2023-07-20T07:14:33;6.22;;;2.40;;
43626;SDS011;29217;52.586;13.442;2023-07-20T07:16:59;3.92;;;2.38;;
43626;SDS011;29217;52.586;13.442;2023-07-20T07:19:25;2.90;;;2.13;;
43626;SDS011;29217;52.586;13.442;2023-07-20T07:21:51;2.45;;;1.67;;
43626;SDS011;29217;52.586;13.442;2023-07-20T07:24:16;2.70;;;1.52;;
43626;SDS011;29217;52.586;13.442;2023-07-20T07:26:42;2.83;;;1.90;;
43626;SDS011;29217;52.586;13.442;2023-07-20T07:29:07;3.97;;;1.70;;
43626;SDS011;29217;52.586;13.442;2023-07-20T07:31:36;2.72;;;1.70;;
43626;SDS011;29217;52.586;13.442;2023-07-20T07:34:03;5.00;;;2.10;;
43626;SDS011;29217;52.586;13.442;2023-07-20T07:36:29;4.15;;;1.90;;
43626;SDS011;29217;52.586;13.442;2023-07-20T07:38:55;2.05;;;1.85;;
43626;SDS011;29217;52.586;13.442;2023-07-20T07:41:21;2.00;;;1.70;;
43626;SDS011;29217;52.586;13.442;2023-07-20T07:43:47;4.25;;;1.60;;
43626;SDS011;29217;52.586;13.442;2023-07-20T07:46:13;4.28;;;2.15;;
43626;SDS011;29217;52.586;13.442;2023-07-20T07:48:39;4.05;;;1.38;;
43626;SDS011;29217;52.586;13.442;2023-07-20T07:51:04;3.47;;;1.58;;
43626;SDS011;29217;52.586;13.442;2023-07-20T07:53:30;1.88;;;1.20;;
43626;SDS011;29217;52.586;13.442;2023-07-20T07:55:57;2.75;;;1.35;;
43626;SDS011;29217;52.586;13.442;2023-07-20T07:58:23;2.63;;;1.60;;
43626;SDS011;29217;52.586;13.442;2023-07-20T08:00:48;3.35;;;1.27;;
43626;SDS011;29217;52.586;13.442;2023-07-20T08:03:14;4.78;;;1.40;;
43626;SDS011;29217;52.586;13.442;2023-07-20T08:05:40;2.85;;;1.50;;
43626;SDS011;29217;52.586;13.442;2023-07-20T08:08:05;2.35;;;1.42;;
43626;SDS011;29217;52.586;13.442;2023-07-20T08:10:31;2.53;;;1.15;;
43626;SDS011;29217;52.586;13.442;2023-07-20T08:12:56;3.35;;;1.35;;
43626;SDS011;29217;52.586;13.442;2023-07-20T08:15:22;3.38;;;1.58;;
43626;SDS011;29217;52.586;13.442;2023-07-20T08:17:48;3.85;;;1.20;;
43626;SDS011;29217;52.586;13.442;2023-07-20T08:20:16;4.70;;;1.52;;
43626;SDS011;29217;52.586;13.442;2023-07-20T08:22:42;4.18;;;1.60;;
43626;SDS011;29217;52.586;13.442;2023-07-20T08:25:08;2.33;;;1.35;;
43626;SDS011;29217;52.586;13.442;2023-07-20T08:27:35;3.85;;;1.20;;
43626;SDS011;29217;52.586;13.442;2023-07-20T08:30:01;0.98;;;0.90;;
43626;SDS011;29217;52.586;13.442;2023-07-20T08:32:27;1.33;;;1.10;;
43626;SDS011;29217;52.586;13.442;2023-07-20T08:34:53;2.55;;;1.77;;
43626;SDS011;29217;52.586;13.442;2023-07-20T08:37:18;3.60;;;1.02;;
43626;SDS011;29217;52.586;13.442;2023-07-20T08:39:44;1.40;;;0.93;;
43626;SDS011;29217;52.586;13.442;2023-07-20T08:42:10;3.13;;;0.98;;
43626;SDS011;29217;52.586;13.442;2023-07-20T08:44:38;4.55;;;1.02;;
43626;SDS011;29217;52.586;13.442;2023-07-20T08:47:06;2.45;;;0.80;;
43626;SDS011;29217;52.586;13.442;2023-07-20T08:49:33;0.95;;;0.90;;
43626;SDS011;29217;52.586;13.442;2023-07-20T08:52:00;0.70;;;0.70;;
43626;SDS011;29217;52.586;13.442;2023-07-20T08:54:29;1.08;;;0.70;;
43626;SDS011;29217;52.586;13.442;2023-07-20T08:56:57;1.13;;;0.90;;
43626;SDS011;29217;52.586;13.442;2023-07-20T08:59:29;2.40;;;0.80;;
43626;SDS011;29217;52.586;13.442;2023-07-20T09:01:56;2.97;;;0.70;;
43626;SDS011;29217;52.586;13.442;2023-07-20T09:04:22;1.05;;;0.80;;
43626;SDS011;29217;52.586;13.442;2023-07-20T09:06:49;2.03;;;0.90;;
43626;SDS011;29217;52.586;13.442;2023-07-20T09:09:15;1.60;;;0.70;;
43626;SDS011;29217;52.586;13.442;2023-07-20T09:11:41;3.95;;;0.60;;
43626;SDS011;29217;52.586;13.442;2023-07-20T09:14:07;0.70;;;0.70;;
43626;SDS011;29217;52.586;13.442;2023-07-20T09:16:52;1.20;;;0.75;;
43626;SDS011;29217;52.586;13.442;2023-07-20T09:19:18;0.70;;;0.60;;
43626;SDS011;29217;52.586;13.442;2023-07-20T09:21:45;1.77;;;0.77;;
43626;SDS011;29217;52.586;13.442;2023-07-20T09:24:15;0.80;;;0.80;;
43626;SDS011;29217;52.586;13.442;2023-07-20T09:26:45;0.77;;;0.70;;
43626;SDS011;29217;52.586;13.442;2023-07-20T09:29:19;1.38;;;0.68;;
43626;SDS011;29217;52.586;13.442;2023-07-20T09:31:58;0.80;;;0.60;;
43626;SDS011;29217;52.586;13.442;2023-07-20T09:34:23;1.25;;;0.90;;
43626;SDS011;29217;52.586;13.442;2023-07-20T09:36:49;2.92;;;0.85;;
43626;SDS011;29217;52.586;13.442;2023-07-20T09:39:16;0.60;;;0.60;;
43626;SDS011;29217;52.586;13.442;2023-07-20T09:41:42;0.63;;;0.63;;
43626;SDS011;29217;52.586;13.442;2023-07-20T09:44:07;1.40;;;0.70;;
43626;SDS011;29217;52.586;13.442;2023-07-20T09:46:41;1.80;;;0.90;;
43626;SDS011;29217;52.586;13.442;2023-07-20T09:49:09;1.13;;;0.90;;
43626;SDS011;29217;52.586;13.442;2023-07-20T09:51:35;0.85;;;0.73;;
43626;SDS011;29217;52.586;13.442;2023-07-20T09:54:01;1.95;;;0.95;;
43626;SDS011;29217;52.586;13.442;2023-07-20T09:56:28;6.72;;;1.98;;
43626;SDS011;29217;52.586;13.442;2023-07-20T09:58:55;1.83;;;0.90;;
43626;SDS011;29217;52.586;13.442;2023-07-20T10:01:21;1.55;;;1.00;;
43626;SDS011;29217;52.586;13.442;2023-07-20T10:03:48;2.22;;;1.08;;
43626;SDS011;29217;52.586;13.442;2023-07-20T10:06:17;1.10;;;0.98;;
43626;SDS011;29217;52.586;13.442;2023-07-20T10:08:47;2.65;;;0.90;;
43626;SDS011;29217;52.586;13.442;2023-07-20T10:11:16;2.65;;;0.98;;
43626;SDS011;29217;52.586;13.442;2023-07-20T10:13:43;5.00;;;0.95;;
43626;SDS011;29217;52.586;13.442;2023-07-20T10:16:10;1.85;;;0.90;;
43626;SDS011;29217;52.586;13.442;2023-07-20T10:21:26;1.50;;;0.95;;
43626;SDS011;29217;52.586;13.442;2023-07-20T10:23:54;1.67;;;0.80;;
43626;SDS011;29217;52.586;13.442;2023-07-20T10:26:21;1.48;;;0.73;;
43626;SDS011;29217;52.586;13.442;2023-07-20T10:28:46;1.27;;;0.80;;
43626;SDS011;29217;52.586;13.442;2023-07-20T10:31:12;1.08;;;0.90;;
43626;SDS011;29217;52.586;13.442;2023-07-20T10:33:40;1.70;;;1.00;;
43626;SDS011;29217;52.586;13.442;2023-07-20T10:36:06;1.02;;;0.70;;
43626;SDS011;29217;52.586;13.442;2023-07-20T10:41:16;8.07;;;0.95;;
43626;SDS011;29217;52.586;13.442;2023-07-20T10:43:47;1.25;;;1.00;;
43626;SDS011;29217;52.586;13.442;2023-07-20T10:46:14;2.22;;;0.80;;
43626;SDS011;29217;52.586;13.442;2023-07-20T10:51:24;2.13;;;0.90;;
43626;SDS011;29217;52.586;13.442;2023-07-20T10:53:50;1.20;;;0.70;;
43626;SDS011;29217;52.586;13.442;2023-07-20T10:56:21;2.08;;;0.90;;
43626;SDS011;29217;52.586;13.442;2023-07-20T10:58:48;1.17;;;0.90;;
43626;SDS011;29217;52.586;13.442;2023-07-20T11:01:14;5.45;;;1.15;;
43626;SDS011;29217;52.586;13.442;2023-07-20T11:03:42;1.13;;;0.73;;
43626;SDS011;29217;52.586;13.442;2023-07-20T11:08:49;2.58;;;0.60;;
43626;SDS011;29217;52.586;13.442;2023-07-20T11:11:24;1.25;;;0.65;;
43626;SDS011;29217;52.586;13.442;2023-07-20T11:14:09;1.60;;;0.50;;
43626;SDS011;29217;52.586;13.442;2023-07-20T11:16:59;1.33;;;0.70;;
43626;SDS011;29217;52.586;13.442;2023-07-20T11:19:37;0.80;;;0.70;;
43626;SDS011;29217;52.586;13.442;2023-07-20T11:22:05;1.05;;;0.60;;
43626;SDS011;29217;52.586;13.442;2023-07-20T11:24:36;1.05;;;0.63;;
43626;SDS011;29217;52.586;13.442;2023-07-20T11:27:04;0.50;;;0.50;;
43626;SDS011;29217;52.586;13.442;2023-07-20T11:29:30;1.52;;;0.50;;
43626;SDS011;29217;52.586;13.442;2023-07-20T11:31:56;1.55;;;0.60;;
43626;SDS011;29217;52.586;13.442;2023-07-20T11:34:22;1.95;;;0.43;;
43626;SDS011;29217;52.586;13.442;2023-07-20T11:36:48;1.10;;;0.60;;
43626;SDS011;29217;52.586;13.442;2023-07-20T11:39:16;0.55;;;0.55;;
43626;SDS011;29217;52.586;13.442;2023-07-20T11:41:49;1.30;;;0.60;;
43626;SDS011;29217;52.586;13.442;2023-07-20T11:44:21;0.55;;;0.50;;
43626;SDS011;29217;52.586;13.442;2023-07-20T11:47:00;0.82;;;0.43;;
43626;SDS011;29217;52.586;13.442;2023-07-20T11:49:36;2.13;;;0.60;;
43626;SDS011;29217;52.586;13.442;2023-07-20T11:52:04;1.40;;;0.60;;
43626;SDS011;29217;52.586;13.442;2023-07-20T11:54:32;9.85;;;1.27;;
43626;SDS011;29217;52.586;13.442;2023-07-20T11:57:00;4.55;;;0.70;;
43626;SDS011;29217;52.586;13.442;2023-07-20T11:59:26;0.63;;;0.47;;
43626;SDS011;29217;52.586;13.442;2023-07-20T12:01:52;0.70;;;0.60;;
43626;SDS011;29217;52.586;13.442;2023-07-20T12:04:17;1.27;;;0.60;;
43626;SDS011;29217;52.586;13.442;2023-07-20T12:06:44;1.20;;;0.50;;
43626;SDS011;29217;52.586;13.442;2023-07-20T12:09:13;1.58;;;0.60;;
43626;SDS011;29217;52.586;13.442;2023-07-20T12:11:42;1.50;;;0.75;;
43626;SDS011;29217;52.586;13.442;2023-07-20T12:14:08;0.63;;;0.50;;
43626;SDS011;29217;52.586;13.442;2023-07-20T12:16:35;1.25;;;0.60;;
43626;SDS011;29217;52.586;13.442;2023-07-20T12:19:04;1.48;;;0.82;;
43626;SDS011;29217;52.586;13.442;2023-07-20T12:21:38;1.20;;;0.70;;
43626;SDS011;29217;52.586;13.442;2023-07-20T12:24:06;1.80;;;0.77;;
43626;SDS011;29217;52.586;13.442;2023-07-20T12:26:34;1.33;;;0.65;;
43626;SDS011;29217;52.586;13.442;2023-07-20T12:29:00;1.05;;;0.70;;
43626;SDS011;29217;52.586;13.442;2023-07-20T12:31:26;1.30;;;0.90;;
43626;SDS011;29217;52.586;13.442;2023-07-20T12:33:53;0.60;;;0.55;;
43626;SDS011;29217;52.586;13.442;2023-07-20T12:36:22;1.30;;;0.70;;
43626;SDS011;29217;52.586;13.442;2023-07-20T12:38:49;0.82;;;0.60;;
43626;SDS011;29217;52.586;13.442;2023-07-20T12:41:14;1.65;;;0.70;;
43626;SDS011;29217;52.586;13.442;2023-07-20T12:43:40;3.42;;;0.50;;
43626;SDS011;29217;52.586;13.442;2023-07-20T12:46:07;3.25;;;0.85;;
43626;SDS011;29217;52.586;13.442;2023-07-20T12:48:33;1.95;;;0.50;;
43626;SDS011;29217;52.586;13.442;2023-07-20T12:51:01;0.60;;;0.50;;
43626;SDS011;29217;52.586;13.442;2023-07-20T12:53:28;0.88;;;0.63;;
43626;SDS011;29217;52.586;13.442;2023-07-20T12:55:53;1.63;;;1.05;;
43626;SDS011;29217;52.586;13.442;2023-07-20T12:58:19;5.82;;;0.80;;
43626;SDS011;29217;52.586;13.442;2023-07-20T13:00:44;0.93;;;0.60;;
43626;SDS011;29217;52.586;13.442;2023-07-20T13:03:10;1.95;;;0.70;;
43626;SDS011;29217;52.586;13.442;2023-07-20T13:05:36;0.70;;;0.60;;
43626;SDS011;29217;52.586;13.442;2023-07-20T13:08:02;0.35;;;0.35;;
43626;SDS011;29217;52.586;13.442;2023-07-20T13:10:27;1.13;;;0.70;;
43626;SDS011;29217;52.586;13.442;2023-07-20T13:12:54;1.98;;;0.50;;
43626;SDS011;29217;52.586;13.442;2023-07-20T13:15:19;1.58;;;0.50;;
43626;SDS011;29217;52.586;13.442;2023-07-20T13:17:45;1.67;;;0.50;;
43626;SDS011;29217;52.586;13.442;2023-07-20T13:20:11;4.93;;;0.60;;
43626;SDS011;29217;52.586;13.442;2023-07-20T13:22:37;3.80;;;0.47;;
43626;SDS011;29217;52.586;13.442;2023-07-20T13:25:03;0.80;;;0.32;;
43626;SDS011;29217;52.586;13.442;2023-07-20T13:27:29;2.10;;;0.60;;
43626;SDS011;29217;52.586;13.442;2023-07-20T13:29:56;0.70;;;0.40;;
43626;SDS011;29217;52.586;13.442;2023-07-20T13:32:22;0.70;;;0.40;;
43626;SDS011;29217;52.586;13.442;2023-07-20T13:34:48;0.50;;;0.40;;
43626;SDS011;29217;52.586;13.442;2023-07-20T13:37:14;3.45;;;0.57;;
43626;SDS011;29217;52.586;13.442;2023-07-20T13:39:41;1.73;;;0.70;;
43626;SDS011;29217;52.586;13.442;2023-07-20T13:42:06;1.73;;;0.45;;
43626;SDS011;29217;52.586;13.442;2023-07-20T13:44:34;1.05;;;0.60;;
43626;SDS011;29217;52.586;13.442;2023-07-20T13:47:00;1.88;;;0.60;;
43626;SDS011;29217;52.586;13.442;2023-07-20T13:49:26;2.88;;;0.50;;
43626;SDS011;29217;52.586;13.442;2023-07-20T13:51:52;1.40;;;0.50;;
43626;SDS011;29217;52.586;13.442;2023-07-20T13:54:17;1.05;;;0.50;;
43626;SDS011;29217;52.586;13.442;2023-07-20T13:56:43;1.58;;;0.55;;
43626;SDS011;29217;52.586;13.442;2023-07-20T13:59:08;2.90;;;0.63;;
43626;SDS011;29217;52.586;13.442;2023-07-20T14:01:34;0.73;;;0.40;;
43626;SDS011;29217;52.586;13.442;2023-07-20T14:04:00;0.85;;;0.38;;
43626;SDS011;29217;52.586;13.442;2023-07-20T14:06:29;1.67;;;0.50;;
43626;SDS011;29217;52.586;13.442;2023-07-20T14:08:55;3.00;;;0.50;;
43626;SDS011;29217;52.586;13.442;2023-07-20T14:11:21;2.03;;;0.50;;
43626;SDS011;29217;52.586;13.442;2023-07-20T14:13:47;2.20;;;0.50;;
43626;SDS011;29217;52.586;13.442;2023-07-20T14:16:13;4.28;;;0.73;;
43626;SDS011;29217;52.586;13.442;2023-07-20T14:18:39;3.10;;;0.70;;
43626;SDS011;29217;52.586;13.442;2023-07-20T14:21:04;1.20;;;0.43;;
43626;SDS011;29217;52.586;13.442;2023-07-20T14:23:31;1.92;;;0.50;;
43626;SDS011;29217;52.586;13.442;2023-07-20T14:25:57;0.40;;;0.35;;
43626;SDS011;29217;52.586;13.442;2023-07-20T14:28:24;5.15;;;0.60;;
43626;SDS011;29217;52.586;13.442;2023-07-20T14:30:49;1.35;;;0.60;;
43626;SDS011;29217;52.586;13.442;2023-07-20T14:33:15;0.50;;;0.50;;
43626;SDS011;29217;52.586;13.442;2023-07-20T14:35:40;0.80;;;0.70;;
43626;SDS011;29217;52.586;13.442;2023-07-20T14:38:06;1.70;;;0.40;;
43626;SDS011;29217;52.586;13.442;2023-07-20T14:40:32;0.65;;;0.60;;
43626;SDS011;29217;52.586;13.442;2023-07-20T14:42:57;1.08;;;0.52;;
43626;SDS011;29217;52.586;13.442;2023-07-20T14:45:25;2.92;;;0.63;;